Time;durP1;ratioP1;P1;durP2;ratioP2;P2;SDS_P1;SDS_P2;PMS_P1;PMS_P2;Temp;Humidity;BMP_temperature;BMP_pressure;BME280_temperature;BME280_humidity;BME280_pressure;Samples;Min_cycle;Max_cycle;Signal;HPM_P1;HPM_P2
2021/01/22 00:01:03;;;;;;;19.27;10.93;;;256.90;1561.60;;;;;;4919087;29;20036;-70
2021/01/22 00:03:28;;;;;;;20.30;10.55;;;256.70;1587.20;;;;;;4917378;29;20470;-71
2021/01/22 00:05:54;;;;;;;16.83;9.05;;;256.70;1612.80;;;;;;4932563;29;20028;-71
2021/01/22 00:08:20;;;;;;;17.95;9.82;;;256.60;1612.80;;;;;;4916508;29;20381;-72
2021/01/22 00:10:45;;;;;;;18.23;9.68;;;256.50;1612.80;;;;;;4919814;29;20028;-72
2021/01/22 00:13:11;;;;;;;20.70;11.52;;;256.50;1587.20;;;;;;4917956;29;20050;-70
2021/01/22 00:15:37;;;;;;;15.48;9.35;;;256.40;1612.80;;;;;;4918381;29;20051;-70
2021/01/22 00:18:03;;;;;;;16.77;8.23;;;256.30;1638.40;;;;;;4902177;29;20036;-70
2021/01/22 00:20:29;;;;;;;21.08;10.82;;;256.40;1612.80;;;;;;4918873;29;20062;-71
2021/01/22 00:22:54;;;;;;;16.88;8.88;;;256.40;1612.80;;;;;;4917565;29;20088;-70
2021/01/22 00:25:20;;;;;;;18.55;9.00;;;256.30;1638.40;;;;;;4919673;29;20430;-71
2021/01/22 00:27:46;;;;;;;16.65;8.82;;;256.20;1638.40;;;;;;4919065;29;20032;-68
2021/01/22 00:30:12;;;;;;;17.33;8.10;;;256.20;1638.40;;;;;;4900907;29;20032;-70
2021/01/22 00:32:38;;;;;;;18.33;8.30;;;256.20;1664.00;;;;;;4918601;29;20046;-70
2021/01/22 00:35:05;;;;;;;12.85;7.95;;;256.10;1664.00;;;;;;4917791;29;20106;-72
2021/01/22 00:37:30;;;;;;;11.80;6.43;;;256.10;1689.60;;;;;;4916113;29;20036;-72
2021/01/22 00:39:56;;;;;;;15.20;8.00;;;256.20;1638.40;;;;;;4917750;29;20036;-71
2021/01/22 00:42:22;;;;;;;14.38;7.88;;;256.20;1638.40;;;;;;4917221;29;20043;-71
2021/01/22 00:44:48;;;;;;;14.35;8.13;;;256.20;1638.40;;;;;;4918236;29;20442;-72
2021/01/22 00:47:14;;;;;;;14.30;7.82;;;256.10;1664.00;;;;;;4915674;29;20036;-72
2021/01/22 00:49:39;;;;;;;15.18;7.43;;;256.10;1664.00;;;;;;4898340;29;20394;-72
2021/01/22 00:52:05;;;;;;;13.35;7.05;;;256.00;1689.60;;;;;;4917332;29;20055;-71
2021/01/22 00:54:31;;;;;;;13.90;7.00;;;231.30;1689.60;;;;;;4917381;29;20032;-70
2021/01/22 00:56:56;;;;;;;12.50;7.00;;;231.30;1689.60;;;;;;4916985;29;20039;-70
2021/01/22 00:59:22;;;;;;;12.48;8.15;;;231.30;1689.60;;;;;;4918287;29;20537;-71
2021/01/22 01:01:48;;;;;;;16.90;8.35;;;231.20;1715.20;;;;;;4917955;29;20359;-70
2021/01/22 01:04:15;;;;;;;15.65;8.77;;;230.90;1740.80;;;;;;4921567;29;20028;-71
2021/01/22 01:06:41;;;;;;;16.35;8.32;;;230.90;1766.40;;;;;;4924896;29;20056;-71
2021/01/22 01:09:07;;;;;;;16.05;8.73;;;230.80;1766.40;;;;;;4916733;29;20379;-71
2021/01/22 01:11:33;;;;;;;15.55;8.60;;;230.60;1792.00;;;;;;4917423;29;20036;-71
2021/01/22 01:13:58;;;;;;;17.50;10.48;;;230.60;1792.00;;;;;;4917750;29;20115;-70
2021/01/22 01:16:24;;;;;;;16.77;8.85;;;230.50;1817.60;;;;;;4917665;29;20047;-71
2021/01/22 01:18:50;;;;;;;14.52;7.70;;;205.70;1868.80;;;;;;4899909;29;20164;-71
2021/01/22 01:21:16;;;;;;;14.80;6.72;;;180.10;1817.60;;;;;;4915323;29;20056;-70
2021/01/22 01:23:41;;;;;;;10.57;6.07;;;230.60;1766.40;;;;;;4921147;29;20116;-70
2021/01/22 01:26:07;;;;;;;12.80;7.57;;;230.70;1766.40;;;;;;4919031;29;20394;-71
2021/01/22 01:28:33;;;;;;;9.63;5.40;;;230.70;1792.00;;;;;;4900870;29;20076;-69
2021/01/22 01:30:59;;;;;;;13.32;6.68;;;230.90;1740.80;;;;;;4920023;29;20032;-70
2021/01/22 01:33:24;;;;;;;13.23;6.90;;;230.90;1740.80;;;;;;4904728;29;20122;-71
2021/01/22 01:35:52;;;;;;;12.52;6.20;;;230.90;1766.40;;;;;;4899759;29;20107;-71
2021/01/22 01:38:21;;;;;;;11.73;6.07;;;231.00;1740.80;;;;;;4915858;29;20028;-70
2021/01/22 01:40:47;;;;;;;11.73;6.45;;;230.90;1740.80;;;;;;4916681;29;20024;-70
2021/01/22 01:43:13;;;;;;;11.48;5.88;;;231.00;1740.80;;;;;;4923105;29;20035;-71
2021/01/22 01:45:41;;;;;;;12.60;5.45;;;231.00;1715.20;;;;;;4917386;29;20415;-72
2021/01/22 01:48:11;;;;;;;10.82;4.72;;;231.10;1715.20;;;;;;4917024;29;20031;-70
2021/01/22 01:50:39;;;;;;;9.32;4.55;;;231.20;1689.60;;;;;;4916415;29;20494;-70
2021/01/22 01:53:06;;;;;;;10.23;5.80;;;231.30;1689.60;;;;;;4915220;29;20048;-69
2021/01/22 01:55:32;;;;;;;14.00;7.55;;;231.30;1689.60;;;;;;4926932;29;20029;-71
2021/01/22 01:58:01;;;;;;;14.75;8.40;;;231.20;1715.20;;;;;;4918364;29;20114;-71
2021/01/22 02:00:27;;;;;;;14.57;8.50;;;230.90;1766.40;;;;;;4918756;29;20025;-71
2021/01/22 02:02:52;;;;;;;14.63;8.63;;;230.70;1792.00;;;;;;4913765;29;20032;-70
2021/01/22 02:05:18;;;;;;;17.40;9.45;;;230.70;1792.00;;;;;;4916199;29;20528;-70
2021/01/22 02:07:44;;;;;;;15.30;9.35;;;230.50;1817.60;;;;;;4913960;29;20043;-72
2021/01/22 02:10:10;;;;;;;12.93;4.50;;;205.70;1843.20;;;;;;4916816;29;20024;-72
2021/01/22 02:12:37;;;;;;;15.20;8.18;;;230.40;1766.40;;;;;;4916574;29;20079;-70
2021/01/22 02:15:04;;;;;;;17.85;9.38;;;230.50;1817.60;;;;;;4917205;29;20098;-70
2021/01/22 02:17:30;;;;;;;17.00;9.35;;;230.40;1843.20;;;;;;4914074;29;20028;-70
2021/01/22 02:20:03;;;;;;;16.38;9.23;;;205.70;1843.20;;;;;;4896583;29;20495;-71
2021/01/22 02:22:29;;;;;;;16.33;8.18;;;205.60;1868.80;;;;;;4919757;29;20031;-71
2021/01/22 02:24:57;;;;;;;16.20;8.65;;;205.40;1868.80;;;;;;4915765;29;20055;-71
2021/01/22 02:27:23;;;;;;;9.52;4.28;;;205.60;1868.80;;;;;;4916804;29;20426;-71
2021/01/22 02:29:49;;;;;;;10.43;4.85;;;230.40;1792.00;;;;;;4915556;29;20028;-71
2021/01/22 02:32:18;;;;;;;13.23;5.10;;;230.50;1766.40;;;;;;4918704;29;20035;-70
2021/01/22 02:34:45;;;;;;;12.23;4.80;;;230.50;1766.40;;;;;;4914305;29;20414;-71
2021/01/22 02:37:16;;;;;;;7.43;4.80;;;230.50;1766.40;;;;;;4898393;29;20390;-70
2021/01/22 02:39:49;;;;;;;10.07;4.57;;;230.50;1792.00;;;;;;4914856;29;20410;-71
2021/01/22 02:42:16;;;;;;;10.93;6.30;;;230.50;1766.40;;;;;;4915445;29;20036;-71
2021/01/22 02:44:43;;;;;;;13.80;7.18;;;230.50;1792.00;;;;;;4915933;29;20032;-71
2021/01/22 02:47:10;;;;;;;14.07;7.35;;;205.70;1817.60;;;;;;4915186;29;20036;-70
2021/01/22 02:49:37;;;;;;;11.48;6.95;;;205.60;1843.20;;;;;;4916279;29;20032;-71
2021/01/22 02:52:04;;;;;;;13.82;7.50;;;205.50;1843.20;;;;;;4914647;29;20051;-70
2021/01/22 02:54:30;;;;;;;13.85;7.18;;;205.50;1843.20;;;;;;4914604;29;20040;-71
2021/01/22 02:56:56;;;;;;;12.95;7.22;;;205.50;1843.20;;;;;;4915240;29;20039;-71
2021/01/22 02:59:45;;;;;;;13.23;6.82;;;205.40;1843.20;;;;;;4916824;29;20526;-71
2021/01/22 03:02:16;;;;;;;12.43;5.80;;;205.40;1868.80;;;;;;4915599;29;20107;-70
2021/01/22 03:04:42;;;;;;;10.60;5.07;;;205.40;1868.80;;;;;;4914671;29;20080;-70
2021/01/22 03:07:12;;;;;;;9.43;3.92;;;205.40;1817.60;;;;;;4914993;29;20530;-71
2021/01/22 03:09:43;;;;;;;8.38;4.60;;;205.60;1766.40;;;;;;4914653;29;20032;-70
2021/01/22 03:12:10;;;;;;;10.80;5.35;;;205.60;1766.40;;;;;;4915880;29;20127;-71
2021/01/22 03:14:39;;;;;;;10.63;4.93;;;205.60;1792.00;;;;;;4922092;29;20039;-71
2021/01/22 03:17:05;;;;;;;11.13;5.47;;;205.60;1792.00;;;;;;4914099;29;20036;-70
2021/01/22 03:19:45;;;;;;;10.30;5.10;;;205.60;1766.40;;;;;;4915289;29;20020;-71
2021/01/22 03:22:11;;;;;;;9.30;4.82;;;205.60;1792.00;;;;;;4915298;29;20023;-70
2021/01/22 03:24:37;;;;;;;10.93;5.57;;;205.50;1792.00;;;;;;4914468;29;20027;-71
2021/01/22 03:27:03;;;;;;;12.68;6.75;;;205.50;1792.00;;;;;;4915761;29;20028;-71
2021/01/22 03:29:29;;;;;;;15.98;9.25;;;205.30;1817.60;;;;;;4915802;29;20051;-70
2021/01/22 03:31:56;;;;;;;11.70;6.13;;;205.20;1843.20;;;;;;4912604;29;20044;-69
2021/01/22 03:34:26;;;;;;;39.47;20.70;;;205.20;1843.20;;;;;;4915140;29;20448;-70
2021/01/22 03:37:01;;;;;;;21.92;10.40;;;205.10;1843.20;;;;;;4911811;29;20063;-68
2021/01/22 03:39:27;;;;;;;19.10;10.40;;;205.00;1868.80;;;;;;4915466;29;20027;-70
2021/01/22 03:41:53;;;;;;;16.42;8.27;;;204.90;1868.80;;;;;;4919357;29;20044;-70
2021/01/22 03:44:20;;;;;;;11.05;6.65;;;204.90;1894.40;;;;;;4915076;29;20036;-70
2021/01/22 03:46:48;;;;;;;14.35;7.53;;;204.80;1868.80;;;;;;4913937;29;20036;-70
2021/01/22 03:49:14;;;;;;;12.23;4.85;;;204.80;1868.80;;;;;;4914565;29;20032;-70
2021/01/22 03:51:39;;;;;;;10.40;5.00;;;204.90;1843.20;;;;;;4914623;29;20127;-69
2021/01/22 03:54:05;;;;;;;8.55;4.28;;;205.00;1843.20;;;;;;4914527;29;20162;-70
2021/01/22 03:56:32;;;;;;;12.27;6.25;;;205.10;1817.60;;;;;;4915583;29;20032;-71
2021/01/22 03:58:58;;;;;;;13.77;7.25;;;205.10;1843.20;;;;;;4923744;29;20431;-70
2021/01/22 04:01:24;;;;;;;15.00;7.97;;;204.80;1894.40;;;;;;4913193;29;20411;-70
2021/01/22 04:03:50;;;;;;;13.15;7.60;;;179.90;1945.60;;;;;;4913821;29;20028;-71
2021/01/22 04:06:16;;;;;;;14.20;8.45;;;179.70;1996.80;;;;;;4913027;29;20044;-71
2021/01/22 04:08:42;;;;;;;12.65;8.23;;;179.30;2022.40;;;;;;4915311;29;20103;-71
2021/01/22 04:11:08;;;;;;;15.85;7.85;;;179.30;2048.00;;;;;;4914993;29;20197;-70
2021/01/22 04:13:34;;;;;;;16.65;8.88;;;179.20;2073.60;;;;;;4927674;29;20031;-70
2021/01/22 04:16:04;;;;;;;14.52;7.07;;;179.60;2073.60;;;;;;4914949;29;20386;-70
2021/01/22 04:18:29;;;;;;;18.48;9.25;;;179.20;2048.00;;;;;;4917742;29;20095;-71
2021/01/22 04:20:55;;;;;;;16.50;9.15;;;179.30;2048.00;;;;;;4918413;29;20032;-71
2021/01/22 04:23:21;;;;;;;21.08;9.68;;;154.50;2073.60;;;;;;4919231;29;20040;-70
2021/01/22 04:25:48;;;;;;;19.05;10.07;;;154.30;2099.20;;;;;;4918462;29;20035;-70
2021/01/22 04:28:14;;;;;;;17.63;10.10;;;154.20;2124.80;;;;;;4919377;29;20494;-71
2021/01/22 04:30:40;;;;;;;15.25;8.98;;;154.10;2124.80;;;;;;4919613;29;20028;-71
2021/01/22 04:33:06;;;;;;;14.52;9.65;;;154.10;2124.80;;;;;;4917696;29;20028;-71
2021/01/22 04:35:32;;;;;;;18.67;10.52;;;154.00;2124.80;;;;;;4917376;29;20115;-70
2021/01/22 04:37:59;;;;;;;32.95;19.67;;;154.00;2150.40;;;;;;4917346;29;20032;-71
2021/01/22 04:40:25;;;;;;;15.68;9.30;;;153.90;2150.40;;;;;;4918665;29;20032;-71
2021/01/22 04:42:51;;;;;;;22.30;11.35;;;153.90;2150.40;;;;;;4917954;29;20115;-70
2021/01/22 04:45:17;;;;;;;22.95;14.85;;;153.80;2176.00;;;;;;4918022;29;20451;-70
2021/01/22 04:47:43;;;;;;;21.77;10.75;;;153.80;2150.40;;;;;;4917669;29;20040;-70
2021/01/22 04:50:11;;;;;;;18.85;11.35;;;153.80;2176.00;;;;;;4922798;29;20043;-71
2021/01/22 04:52:37;;;;;;;20.45;13.00;;;153.60;2201.60;;;;;;4925161;29;20151;-70
2021/01/22 04:55:06;;;;;;;19.65;12.35;;;128.90;2201.60;;;;;;4916651;29;20071;-71
2021/01/22 04:57:40;;;;;;;22.90;13.27;;;128.90;2227.20;;;;;;4921076;29;21398;-71
2021/01/22 05:00:06;;;;;;;20.33;12.10;;;128.80;2227.20;;;;;;4918713;29;20526;-70
2021/01/22 05:02:32;;;;;;;23.40;12.82;;;128.70;2252.80;;;;;;4915723;29;20103;-70
2021/01/22 05:04:59;;;;;;;19.70;12.35;;;128.60;2252.80;;;;;;4920756;29;20052;-70
2021/01/22 05:07:25;;;;;;;22.63;12.40;;;128.50;2252.80;;;;;;4917871;29;20024;-70
2021/01/22 05:09:50;;;;;;;19.42;11.80;;;128.50;2252.80;;;;;;4914354;29;20088;-71
2021/01/22 05:12:16;;;;;;;19.40;11.05;;;128.40;2252.80;;;;;;4915203;29;20038;-71
2021/01/22 05:14:42;;;;;;;19.00;11.23;;;128.30;2252.80;;;;;;4917448;29;20082;-70
2021/01/22 05:17:10;;;;;;;19.17;9.70;;;128.30;2252.80;;;;;;4914535;29;20035;-71
2021/01/22 05:19:43;;;;;;;20.85;13.15;;;128.30;2252.80;;;;;;4916677;29;20027;-70
2021/01/22 05:22:17;;;;;;;21.50;9.70;;;128.50;2252.80;;;;;;4917400;29;20028;-71
2021/01/22 05:24:44;;;;;;;22.48;11.10;;;128.60;2252.80;;;;;;4918395;29;20036;-68
2021/01/22 05:27:11;;;;;;;16.55;10.52;;;128.80;2227.20;;;;;;4916671;29;20028;-69
2021/01/22 05:29:42;;;;;;;20.35;11.90;;;128.80;2201.60;;;;;;4912852;29;20107;-81
2021/01/22 05:32:28;;;;;;;16.80;10.10;;;128.90;2201.60;;;;;;4914877;29;20063;-73
2021/01/22 05:34:55;;;;;;;17.25;8.93;;;128.90;2201.60;;;;;;4916604;29;20352;-71
2021/01/22 05:37:23;;;;;;;15.60;9.38;;;128.80;2227.20;;;;;;4898647;29;20391;-71
2021/01/22 05:40:11;;;;;;;23.52;12.45;;;128.70;2227.20;;;;;;4914070;29;20447;-70
2021/01/22 05:42:47;;;;;;;42.88;21.33;;;128.60;2227.20;;;;;;4914133;29;20494;-70
2021/01/22 05:45:15;;;;;;;21.58;11.48;;;128.70;2227.20;;;;;;4922040;29;20040;-70
2021/01/22 05:47:41;;;;;;;26.98;14.77;;;128.80;2201.60;;;;;;4915139;29;20056;-71
2021/01/22 05:50:08;;;;;;;23.35;12.38;;;128.90;2201.60;;;;;;4915194;29;20047;-63
2021/01/22 05:52:34;;;;;;;26.90;14.70;;;128.90;2201.60;;;;;;4914124;29;20047;-67
2021/01/22 05:55:17;;;;;;;43.38;20.55;;;153.60;2201.60;;;;;;4915603;29;20083;-81
2021/01/22 05:57:42;;;;;;;54.30;23.67;;;153.80;2176.00;;;;;;4896521;29;20044;-86
2021/01/22 06:00:13;;;;;;;42.47;21.33;;;153.80;2176.00;;;;;;4912554;29;20055;-87
2021/01/22 06:02:39;;;;;;;29.13;14.23;;;153.80;2176.00;;;;;;4915365;29;20036;-75
2021/01/22 06:05:15;;;;;;;27.20;13.07;;;153.80;2176.00;;;;;;4914830;29;20024;-74
2021/01/22 06:07:43;;;;;;;33.00;14.95;;;153.80;2176.00;;;;;;4913659;29;20064;-70
2021/01/22 06:10:24;;;;;;;22.85;12.10;;;153.80;2176.00;;;;;;4911239;29;20119;-65
2021/01/22 06:12:54;;;;;;;28.17;14.07;;;153.90;2176.00;;;;;;4906469;29;20048;-65
2021/01/22 06:15:22;;;;;;;32.65;13.60;;;153.90;2150.40;;;;;;4907886;29;20047;-66
2021/01/22 06:17:53;;;;;;;38.90;17.05;;;153.90;2150.40;;;;;;4915729;29;20111;-66
2021/01/22 06:20:21;;;;;;;24.80;11.40;;;154.00;2150.40;;;;;;4913708;29;20096;-67
2021/01/22 06:23:13;;;;;;;18.95;9.23;;;154.00;2150.40;;;;;;4915675;29;20090;-67
2021/01/22 06:25:42;;;;;;;23.92;11.25;;;154.10;2124.80;;;;;;4907257;29;20072;-67
2021/01/22 06:28:12;;;;;;;16.27;9.18;;;154.10;2124.80;;;;;;4914388;29;20032;-73
2021/01/22 06:30:40;;;;;;;26.13;12.00;;;154.20;2124.80;;;;;;4914593;29;20035;-73
2021/01/22 06:33:06;;;;;;;16.35;9.38;;;154.20;2124.80;;;;;;4919074;29;20482;-74
2021/01/22 06:35:37;;;;;;;16.98;8.32;;;154.30;2124.80;;;;;;4916058;29;20111;-79
2021/01/22 06:38:04;;;;;;;15.02;8.45;;;154.40;2099.20;;;;;;4914949;29;20060;-71
2021/01/22 06:40:30;;;;;;;24.52;12.63;;;179.20;2073.60;;;;;;4914482;29;20084;-71
2021/01/22 06:42:56;;;;;;;67.05;29.20;;;179.30;2073.60;;;;;;4916544;29;20486;-71
2021/01/22 06:45:23;;;;;;;38.25;17.27;;;179.40;2048.00;;;;;;4916337;29;20024;-73
2021/01/22 06:48:06;;;;;;;54.75;24.20;;;179.70;2022.40;;;;;;4910507;29;20043;-74
2021/01/22 06:50:35;;;;;;;51.15;24.30;;;179.80;2022.40;;;;;;4915294;29;20024;-74
2021/01/22 06:53:17;;;;;;;58.42;28.40;;;180.00;1971.20;;;;;;4913919;29;20059;-72
2021/01/22 06:55:51;;;;;;;20.08;10.68;;;180.10;1971.20;;;;;;4914919;29;20033;-69
2021/01/22 06:58:26;;;;;;;22.52;11.55;;;204.80;1971.20;;;;;;4915382;29;20028;-69
2021/01/22 07:00:57;;;;;;;21.73;10.93;;;205.00;1971.20;;;;;;4915872;29;20084;-69
2021/01/22 07:03:37;;;;;;;16.40;8.18;;;205.10;1920.00;;;;;;4915112;29;20482;-67
2021/01/22 07:06:08;;;;;;;16.13;9.65;;;205.30;1920.00;;;;;;4912323;29;20035;-69
2021/01/22 07:08:52;;;;;;;51.92;31.92;;;205.40;1894.40;;;;;;4913672;29;20111;-67
2021/01/22 07:11:18;;;;;;;27.15;15.00;;;205.60;1868.80;;;;;;4913792;29;20521;-71
2021/01/22 07:13:48;;;;;;;13.02;8.50;;;230.40;1817.60;;;;;;4913319;29;20028;-73
2021/01/22 07:16:16;;;;;;;13.10;7.10;;;230.50;1843.20;;;;;;4911471;29;20114;-68
2021/01/22 07:18:52;;;;;;;14.23;8.30;;;230.60;1792.00;;;;;;4914346;29;20055;-66
2021/01/22 07:21:32;;;;;;;15.90;8.52;;;230.70;1766.40;;;;;;4913465;29;20107;-69
2021/01/22 07:24:04;;;;;;;16.00;8.70;;;230.70;1792.00;;;;;;4912087;29;20028;-70
2021/01/22 07:26:34;;;;;;;20.70;9.48;;;230.70;1792.00;;;;;;4914065;29;20047;-69
2021/01/22 07:29:15;;;;;;;16.85;7.40;;;230.70;1817.60;;;;;;4913870;29;20028;-68
2021/01/22 07:31:47;;;;;;;19.60;8.63;;;230.60;1817.60;;;;;;4913247;29;20066;-71
2021/01/22 07:34:35;;;;;;;19.52;9.90;;;230.50;1843.20;;;;;;4912397;29;20490;-73
2021/01/22 07:37:02;;;;;;;17.70;9.15;;;230.40;1843.20;;;;;;4912691;29;20433;-74
2021/01/22 07:39:29;;;;;;;26.25;15.05;;;230.40;1843.20;;;;;;4925247;29;20016;-72
2021/01/22 07:42:08;;;;;;;19.70;12.70;;;230.50;1868.80;;;;;;4915942;29;20032;-77
2021/01/22 07:44:35;;;;;;;17.52;9.02;;;230.40;1843.20;;;;;;4915009;29;20028;-73
2021/01/22 07:47:02;;;;;;;20.42;8.90;;;230.50;1843.20;;;;;;4914357;29;20035;-74
2021/01/22 07:49:27;;;;;;;16.63;7.78;;;230.70;1817.60;;;;;;4910933;29;20513;-73
2021/01/22 07:51:53;;;;;;;12.55;5.38;;;230.90;1792.00;;;;;;4915545;29;20048;-74
2021/01/22 07:54:19;;;;;;;10.88;4.93;;;231.20;1740.80;;;;;;4917199;29;20040;-73
2021/01/22 07:56:47;;;;;;;16.67;8.40;;;256.10;1689.60;;;;;;4903191;29;20115;-71
2021/01/22 07:59:14;;;;;;;22.35;7.75;;;256.40;1689.60;;;;;;4915754;29;20492;-78
2021/01/22 08:01:40;;;;;;;17.45;8.40;;;256.50;1689.60;;;;;;4917738;29;20040;-75
2021/01/22 08:04:06;;;;;;;18.20;8.20;;;256.50;1689.60;;;;;;4911054;29;20035;-73
2021/01/22 08:06:52;;;;;;;18.23;8.95;;;256.70;1664.00;;;;;;4913116;29;20032;-73
2021/01/22 08:09:18;;;;;;;26.77;10.85;;;256.70;1689.60;;;;;;4913454;29;20032;-74
2021/01/22 08:11:52;;;;;;;24.48;12.02;;;256.80;1664.00;;;;;;4917302;29;20131;-72
2021/01/22 08:14:27;;;;;;;;;;;256.90;1664.00;;;;;;4917187;29;20028;-67
2021/01/22 08:16:53;;;;;;;19.08;10.00;;;256.90;1664.00;;;;;;4916141;29;20383;-68
2021/01/22 08:19:24;;;;;;;19.20;10.45;;;256.90;1638.40;;;;;;4915160;29;20036;-68
2021/01/22 08:21:50;;;;;;;26.17;12.77;;;281.60;1664.00;;;;;;4914691;29;20051;-70
2021/01/22 08:24:15;;;;;;;15.43;7.88;;;281.60;1664.00;;;;;;4917177;29;20032;-69
2021/01/22 08:26:42;;;;;;;17.25;9.10;;;281.70;1638.40;;;;;;4918043;29;20051;-74
2021/01/22 08:29:10;;;;;;;9.65;5.53;;;281.70;1664.00;;;;;;4917267;29;20035;-76
2021/01/22 08:31:38;;;;;;;17.83;8.95;;;281.90;1587.20;;;;;;4918498;29;20120;-76
2021/01/22 08:34:06;;;;;;;14.50;7.30;;;281.70;1587.20;;;;;;4916081;29;20029;-76
2021/01/22 08:36:31;;;;;;;14.27;6.75;;;282.30;1587.20;;;;;;4915061;29;20127;-73
2021/01/22 08:38:58;;;;;;;17.25;5.25;;;282.40;1561.60;;;;;;4916641;29;20144;-74
2021/01/22 08:41:27;;;;;;;13.95;6.07;;;282.50;1561.60;;;;;;4916792;29;20028;-72
2021/01/22 08:43:54;;;;;;;14.70;6.43;;;307.30;1561.60;;;;;;4917394;29;20024;-76
2021/01/22 08:46:22;;;;;;;13.38;5.88;;;307.30;1561.60;;;;;;4913576;29;20039;-75
2021/01/22 08:48:48;;;;;;;25.27;10.38;;;307.30;1561.60;;;;;;4915892;29;20028;-72
2021/01/22 08:51:14;;;;;;;15.88;7.30;;;307.30;1587.20;;;;;;4916564;29;20397;-73
2021/01/22 08:53:53;;;;;;;12.98;6.03;;;307.40;1587.20;;;;;;4914734;29;20052;-71
2021/01/22 08:56:22;;;;;;;9.45;5.40;;;307.60;1561.60;;;;;;4914988;29;20024;-71
2021/01/22 08:59:13;;;;;;;12.68;5.43;;;307.60;1561.60;;;;;;4917200;29;20024;-76
2021/01/22 09:01:58;;;;;;;12.40;5.60;;;307.70;1561.60;;;;;;4913028;29;20111;-75
2021/01/22 09:04:29;;;;;;;29.40;8.02;;;307.70;1536.00;;;;;;4912679;29;20402;-71
2021/01/22 09:06:59;;;;;;;13.18;6.57;;;307.70;1536.00;;;;;;4913588;29;20036;-69
2021/01/22 09:09:42;;;;;;;13.40;5.53;;;307.80;1484.80;;;;;;4914526;29;20111;-72
2021/01/22 09:12:11;;;;;;;12.68;5.72;;;307.80;1510.40;;;;;;4915412;29;20390;-69
2021/01/22 09:14:44;;;;;;;31.88;7.28;;;307.80;1536.00;;;;;;4915573;29;20470;-67
2021/01/22 09:17:38;;;;;;;16.03;6.17;;;307.90;1536.00;;;;;;4913541;29;20095;-67
2021/01/22 09:20:08;;;;;;;9.60;5.72;;;307.90;1510.40;;;;;;4914033;29;20036;-68
2021/01/22 09:22:35;;;;;;;14.57;5.40;;;307.90;1510.40;;;;;;4914823;29;20040;-67
2021/01/22 09:25:05;;;;;;;11.85;5.40;;;308.10;1484.80;;;;;;4916244;29;20032;-73
2021/01/22 09:27:32;;;;;;;13.73;5.72;;;308.00;1484.80;;;;;;4916291;29;20024;-73
2021/01/22 09:29:58;;;;;;;12.57;5.70;;;308.10;1484.80;;;;;;4916850;29;20151;-72
2021/01/22 09:32:24;;;;;;;18.88;5.85;;;332.80;1536.00;;;;;;4916412;29;20135;-73
2021/01/22 09:34:50;;;;;;;12.02;5.53;;;333.10;1510.40;;;;;;4917313;29;20090;-73
2021/01/22 09:37:15;;;;;;;14.15;6.30;;;333.30;1510.40;;;;;;4921608;29;20111;-72
2021/01/22 09:39:41;;;;;;;54.58;9.23;;;333.40;1484.80;;;;;;4914361;29;20598;-71
2021/01/22 09:42:07;;;;;;;14.98;5.43;;;333.50;1484.80;;;;;;4924227;29;20462;-71
2021/01/22 09:44:33;;;;;;;13.30;6.10;;;333.50;1459.20;;;;;;4914418;29;20047;-70
2021/01/22 09:46:59;;;;;;;24.25;8.50;;;333.60;1459.20;;;;;;4928664;29;20035;-71
2021/01/22 09:49:25;;;;;;;11.57;6.10;;;333.70;1459.20;;;;;;4914782;29;20036;-71
2021/01/22 09:51:53;;;;;;;43.22;21.50;;;333.70;1459.20;;;;;;4915014;29;20137;-71
2021/01/22 09:54:19;;;;;;;20.00;7.25;;;358.40;1459.20;;;;;;4916838;29;20051;-74
2021/01/22 09:56:44;;;;;;;16.48;5.65;;;358.40;1459.20;;;;;;4914249;29;20474;-73
2021/01/22 09:59:10;;;;;;;20.17;6.18;;;358.40;1433.60;;;;;;4912034;29;20038;-69
2021/01/22 10:01:37;;;;;;;22.02;6.57;;;358.40;1433.60;;;;;;4914084;29;20044;-74
2021/01/22 10:04:03;;;;;;;30.27;7.20;;;358.80;1433.60;;;;;;4916764;29;20032;-73
2021/01/22 10:06:29;;;;;;;20.13;6.43;;;358.60;1433.60;;;;;;4915497;29;20044;-71
2021/01/22 10:08:55;;;;;;;10.23;4.95;;;358.60;1433.60;;;;;;4912064;29;20035;-70
2021/01/22 10:11:21;;;;;;;13.80;4.97;;;358.70;1408.00;;;;;;4914438;29;20051;-71
2021/01/22 10:13:53;;;;;;;19.80;8.32;;;358.70;1433.60;;;;;;4913402;29;20024;-66
2021/01/22 10:16:24;;;;;;;11.73;5.45;;;358.60;1433.60;;;;;;4912048;29;20036;-67
2021/01/22 10:18:53;;;;;;;12.98;5.93;;;358.70;1408.00;;;;;;4911117;29;20111;-68
2021/01/22 10:21:21;;;;;;;16.35;7.05;;;358.70;1459.20;;;;;;4915430;29;20032;-68
2021/01/22 10:23:51;;;;;;;17.92;5.32;;;358.80;1484.80;;;;;;4914274;29;20058;-71
2021/01/22 10:26:18;;;;;;;26.70;7.20;;;358.80;1433.60;;;;;;4913898;29;20032;-70
2021/01/22 10:28:44;;;;;;;19.33;6.10;;;358.80;1459.20;;;;;;4913342;29;20139;-73
2021/01/22 10:31:10;;;;;;;21.00;6.65;;;358.60;1484.80;;;;;;4913402;29;20453;-71
2021/01/22 10:33:36;;;;;;;14.75;5.95;;;358.50;1459.20;;;;;;4915089;29;20074;-72
2021/01/22 10:36:03;;;;;;;10.55;5.72;;;358.40;1510.40;;;;;;4913917;29;20028;-72
2021/01/22 10:38:29;;;;;;;20.17;6.20;;;333.70;1536.00;;;;;;4915413;29;20446;-71
2021/01/22 10:40:55;;;;;;;15.13;5.40;;;333.40;1587.20;;;;;;4909086;29;20063;-78
2021/01/22 10:43:22;;;;;;;20.25;7.68;;;333.30;1561.60;;;;;;4914537;29;20020;-68
2021/01/22 10:45:49;;;;;;;10.50;5.32;;;333.50;1587.20;;;;;;4915055;29;20040;-67
2021/01/22 10:48:15;;;;;;;11.15;4.97;;;333.60;1484.80;;;;;;4914723;29;20020;-67
2021/01/22 10:50:41;;;;;;;25.00;7.13;;;333.70;1510.40;;;;;;4912666;29;20071;-71
2021/01/22 10:53:08;;;;;;;15.80;5.50;;;358.40;1484.80;;;;;;4914193;29;20080;-72
2021/01/22 10:55:33;;;;;;;12.02;5.50;;;358.40;1459.20;;;;;;4912795;29;20034;-78
2021/01/22 10:57:59;;;;;;;19.00;10.20;;;358.60;1459.20;;;;;;4909283;29;20032;-70
2021/01/22 11:00:25;;;;;;;41.20;21.33;;;358.70;1484.80;;;;;;4913134;29;20099;-69
2021/01/22 11:02:51;;;;;;;11.07;5.25;;;358.80;1484.80;;;;;;4908992;29;20032;-73
2021/01/22 11:05:17;;;;;;;22.15;5.95;;;358.70;1484.80;;;;;;4911154;29;20060;-69
2021/01/22 11:07:43;;;;;;;15.23;6.85;;;358.80;1433.60;;;;;;4908645;29;20480;-70
2021/01/22 11:10:08;;;;;;;13.48;5.63;;;358.70;1484.80;;;;;;4912263;29;20045;-72
2021/01/22 11:12:34;;;;;;;15.32;6.03;;;358.70;1433.60;;;;;;4914483;29;20550;-73
2021/01/22 11:15:00;;;;;;;17.55;6.90;;;358.80;1484.80;;;;;;4914138;29;20385;-68
2021/01/22 11:17:25;;;;;;;11.60;5.80;;;358.70;1510.40;;;;;;4913653;29;20044;-73
2021/01/22 11:19:54;;;;;;;15.35;6.38;;;358.50;1587.20;;;;;;4914821;29;20036;-73
2021/01/22 11:22:19;;;;;;;10.95;5.85;;;358.50;1587.20;;;;;;4915326;29;20044;-76
2021/01/22 11:24:45;;;;;;;18.00;5.13;;;358.60;1510.40;;;;;;4911470;29;20035;-74
2021/01/22 11:27:11;;;;;;;12.23;5.15;;;358.70;1484.80;;;;;;4913657;29;20544;-73
2021/01/22 11:29:39;;;;;;;12.45;5.00;;;358.80;1459.20;;;;;;4917562;29;20386;-74
2021/01/22 11:32:05;;;;;;;15.30;5.93;;;358.90;1459.20;;;;;;4914537;29;20084;-72
2021/01/22 11:34:33;;;;;;;8.32;4.40;;;358.90;1459.20;;;;;;4911227;29;20111;-75
2021/01/22 11:36:59;;;;;;;10.77;5.75;;;358.90;1433.60;;;;;;4914504;29;20031;-74
2021/01/22 11:39:24;;;;;;;11.13;7.13;;;358.90;1484.80;;;;;;4910645;29;20095;-71
2021/01/22 11:41:50;;;;;;;11.32;5.50;;;358.90;1484.80;;;;;;4915022;29;20159;-69
2021/01/22 11:44:16;;;;;;;11.98;5.03;;;358.80;1510.40;;;;;;4908516;29;20560;-71
2021/01/22 11:46:42;;;;;;;11.05;5.00;;;358.80;1510.40;;;;;;4902754;29;20039;-72
2021/01/22 11:49:09;;;;;;;9.75;5.45;;;358.70;1484.80;;;;;;4905038;29;20032;-71
2021/01/22 11:51:35;;;;;;;10.98;5.38;;;358.60;1536.00;;;;;;4901658;29;20413;-73
2021/01/22 11:54:01;;;;;;;10.50;4.82;;;358.70;1510.40;;;;;;4902232;29;20041;-65
2021/01/22 11:56:27;;;;;;;10.85;4.78;;;358.80;1484.80;;;;;;4902959;29;20032;-66
2021/01/22 11:58:53;;;;;;;16.27;5.15;;;358.80;1510.40;;;;;;4904960;29;20028;-65
2021/01/22 12:01:18;;;;;;;12.85;4.65;;;358.90;1484.80;;;;;;4897823;29;20101;-66
2021/01/22 12:03:44;;;;;;;10.13;4.65;;;359.10;1510.40;;;;;;4896977;29;20021;-66
2021/01/22 12:06:10;;;;;;;9.05;4.30;;;359.20;1459.20;;;;;;4898705;29;20091;-66
2021/01/22 12:08:36;;;;;;;8.35;4.10;;;359.20;1433.60;;;;;;4900246;29;20456;-67
2021/01/22 12:11:01;;;;;;;19.38;6.68;;;359.30;1459.20;;;;;;4896033;29;20036;-66